Airfield :
LOGIN :

Register | Disclaimer

   EN    FR    IT 

 










Legend :    VFR   Marginal VFR   IFR   Intensive IFR   Very Intensive IFR
Visi :
Ceiling :
>= 8 km
>= 3000ft
5 to 8 km
1000 to 3000 ft
1500m to 5 km
500 to 1000 ft
800 to 1500m
200 to 500 ft
< 800m
< 200 ft
Symbols :   Thunderstorms  Fog  Heavy snow  Heavy precipitations  Wind > 20 kt
SIGMETs :     Misc.  Thunderstorms  Icing  Turbulence  Mountain Waves  Volcanic Ashes







- Airport Elevation : 586 ft


LIMN - Cameri Air Force Base

CURRENT METAR :
  • 221255Z 02011KT 9999 FEW030 32/03 Q1011 RMK SCT SCT200 VIS MIN 9999 BLU

EXPIRED METARs :
  • 221155Z 03010KT 9999 FEW030 32/03 Q1011 RMK FEW VIS MIN 9999 BLU
  • 221055Z 04013KT 9999 FEW030 31/04 Q1012 RMK FEW VIS MIN 9999 BLU
  • 220955Z 01010KT CAVOK 31/07 Q1012 RMK SCT FEW080 SCT200 VIS MIN 9999 BLU

TAF TAF LIMN
Valid from the 22 at 12:00 until the 22 at 21:00 UTC


221100Z 2212/2221 06010KT CAVOK
PROB30
TEMPO 2212/2218 06015G25KT
No reported NOTAMs for that airfield.
2 SIGMETs reported for the Milano FIR (LIMM) :
 
Severe turbulence
LIMM SIGMET 3 VALID 221305/221705 LIIP
LIMM MILANO FIR SEV TURB FCST E OF LINE N4623 E00834 - N4305 E00956 FL220/420 MOV ESE WKN=
Embedded thunderstorms
LIMM SIGMET 2 VALID 221125/221325 LIIP
LIMM MILANO FIR EMBD TS OBS WI N4546 E01345 - N4413 E00957 - N4338 E01125 - N4326 E01423 - N4516 E01256 - N4546 E01345 TOP FL380 MOV SE NC=



MET'MAP, your aeronautical weather chart ! - Copyright ORBIFLY December 2007 - Disclaimer

ORBIFLY MET'MAP TEAM :

Programming & Development : Alexandra Zaïnal
Concept & Development : Baudouin d'Aumeries
Co-Development & Prog : Marc-Olivier Méhu
Technical & hardware support : Manuel Goepfert

Contact : metmap@orbifly.com




SOURCES & CREDITS :

   NOAA